メインページ
METAR-TAF:

METAR-TAF

空港 :

ジブラルタル, ジブラルタル

ジブラルタル国際空港

緯度: 36-09N, 経度: 005-21W, 海抜: 5m

現時点の気象観測

当レポートは51分前の22:50(UTC)に作成
の風 15kt
気温 15°C
湿度 100%
気圧 1017 hPa
視程10km以上

METAR: LXGB 232250Z AUTO 10015KT 9999 // BKN009/// 15/15 Q1017

時間: 01:41 (23:41 UTC)

予報

当レポートは7時間39分前の16:02(UTC)に作成
予報は23日の 18時(UTC)から 23日の 22時(UTC)まで有効
の風 10kt
視程10km以上
高度1300ftの雲はほとんどない
確率 30% :
23日の 20時(UTC)から 23日の 22時(UTC)まで一時的に
高度1000ftの雲は散在している

TAF: LXGB 231602Z 2318/2322 09010KT 9999 FEW013 PROB30 TEMPO 2320/2322 SCT010

4,000以上の空港の気象観測と天気予報(METAR報とTAF報)

利用可能な観測所は地図上に黄色い丸と赤い丸で示す。

丸の上にカーソルを重ねると観測所名を参照できる。

次にクリックすると気象観測と天気予報を参照できる。

マップの切り替え:黒色「×」印の緑ボタンをクリックして拡大、「-」印の緑ボタンをクリックして縮小、緑色の三角印をクリックして隣りの地図に切り替え


METAR-TAF: